createdAt,value
2019-05-25T00:00:33.220Z,17.7
2019-05-25T00:01:34.675Z,17.7
2019-05-25T00:02:36.264Z,18.2
2019-05-25T00:03:37.613Z,18.2
2019-05-25T00:04:38.918Z,18.1
2019-05-25T00:05:40.362Z,18
2019-05-25T00:06:41.636Z,17.8
2019-05-25T00:07:43.993Z,17.8
2019-05-25T00:08:45.253Z,17.8
2019-05-25T00:09:52.670Z,17.5
2019-05-25T00:10:53.961Z,17.6
2019-05-25T00:11:55.342Z,17.4
2019-05-25T00:12:56.759Z,17.6
2019-05-25T00:13:58.328Z,17.3
2019-05-25T00:14:59.654Z,17.2
2019-05-25T00:16:01.040Z,17.5
2019-05-25T00:17:02.350Z,17.5
2019-05-25T00:18:03.653Z,17.5
2019-05-25T00:19:04.979Z,17.4
2019-05-25T00:20:06.331Z,17.4
2019-05-25T00:21:07.632Z,17.2
2019-05-25T00:22:09.345Z,17.1
2019-05-25T00:23:11.004Z,17.4
2019-05-25T00:24:12.843Z,17.2
2019-05-25T00:25:14.298Z,17.2
2019-05-25T00:26:15.636Z,17.5
2019-05-25T00:27:16.932Z,17.7
2019-05-25T00:28:18.282Z,17.7
2019-05-25T00:29:19.572Z,17.5
2019-05-25T00:30:21.027Z,17.4
2019-05-25T00:31:22.303Z,17
2019-05-25T00:32:23.608Z,17.2
2019-05-25T00:33:24.980Z,16.8
2019-05-25T00:34:26.290Z,17
2019-05-25T00:35:27.660Z,17
2019-05-25T00:36:29.030Z,17.3
2019-05-25T00:37:30.358Z,17
2019-05-25T00:38:31.672Z,17.1
2019-05-25T00:40:42.265Z,17.4
2019-05-25T00:41:43.578Z,17.1
2019-05-25T00:42:45.418Z,17.4
2019-05-25T00:43:46.714Z,17.4
2019-05-25T00:44:48.052Z,17.3
2019-05-25T00:45:49.728Z,17.1
2019-05-25T00:46:51.030Z,17
2019-05-25T00:47:52.340Z,16.9
2019-05-25T00:48:53.608Z,17.2
2019-05-25T00:49:54.981Z,17.2
2019-05-25T00:50:56.302Z,17.1
2019-05-25T00:51:57.557Z,16.9
2019-05-25T00:52:58.833Z,16.9
2019-05-25T00:54:00.111Z,16.9
2019-05-25T00:55:01.422Z,17.1
2019-05-25T00:56:02.726Z,16.8
2019-05-25T00:57:04.044Z,16.8
2019-05-25T00:58:05.300Z,17.1
2019-05-25T00:59:09.360Z,17
2019-05-25T01:00:12.356Z,16.9
2019-05-25T01:01:13.842Z,16.6
2019-05-25T01:02:15.572Z,16.7
2019-05-25T01:03:16.862Z,16.5
2019-05-25T01:04:18.138Z,16.5
2019-05-25T01:05:19.413Z,16.6
2019-05-25T01:06:21.036Z,16.4
2019-05-25T01:07:22.332Z,16.6
2019-05-25T01:08:23.591Z,16.6
2019-05-25T01:09:24.892Z,16.5
2019-05-25T01:10:26.293Z,16.5
2019-05-25T01:11:27.616Z,16.5
2019-05-25T01:12:28.944Z,16.7
2019-05-25T01:13:30.224Z,17
2019-05-25T01:14:31.511Z,16.8
2019-05-25T01:15:32.838Z,16.6
2019-05-25T01:16:34.178Z,16.9
2019-05-25T01:17:35.448Z,16.8
2019-05-25T01:18:36.748Z,16.6
2019-05-25T01:19:38.039Z,16.5
2019-05-25T01:20:39.309Z,16.5
2019-05-25T01:21:40.628Z,16.5
2019-05-25T01:22:43.302Z,16.5
2019-05-25T01:23:44.592Z,16.4
2019-05-25T01:24:46.715Z,16.5
2019-05-25T01:25:50.230Z,16.4
2019-05-25T01:26:51.557Z,16.3
2019-05-25T01:27:52.854Z,16.1
2019-05-25T01:28:54.126Z,16.4
2019-05-25T01:29:55.461Z,16.4
2019-05-25T01:30:56.747Z,16.3
2019-05-25T01:31:58.079Z,16.5
2019-05-25T01:32:59.367Z,16.6
2019-05-25T01:34:00.700Z,16.5
2019-05-25T01:35:02.026Z,16.6
2019-05-25T01:36:03.331Z,16.7
2019-05-25T01:37:04.732Z,16.6
2019-05-25T01:38:06.017Z,16.8
2019-05-25T01:39:07.290Z,16.5
2019-05-25T01:40:08.607Z,16.6
2019-05-25T01:41:09.885Z,16.7
2019-05-25T01:42:11.404Z,16.7
2019-05-25T01:43:12.700Z,16.7
2019-05-25T01:44:15.607Z,16.6
2019-05-25T01:45:16.962Z,16.8
2019-05-25T01:46:18.318Z,16.7
2019-05-25T01:47:19.627Z,16.6
2019-05-25T01:48:21.154Z,16.3
2019-05-25T01:49:22.721Z,16.2
2019-05-25T01:50:23.996Z,16.4
2019-05-25T01:51:25.271Z,16.3
2019-05-25T01:52:26.581Z,16.2
2019-05-25T01:53:27.929Z,16.1
2019-05-25T01:54:29.199Z,16.2
2019-05-25T01:55:30.472Z,16.3
2019-05-25T01:56:31.754Z,16.4
2019-05-25T01:57:33.037Z,16.3
2019-05-25T01:58:34.340Z,16.4
2019-05-25T01:59:35.628Z,16.6
2019-05-25T02:00:37.204Z,16.6
2019-05-25T02:01:38.569Z,16.5
2019-05-25T02:02:40.010Z,16.5
2019-05-25T02:03:41.310Z,16.5
2019-05-25T02:04:42.623Z,16.4
2019-05-25T02:05:43.931Z,16.3
2019-05-25T02:06:45.208Z,16.2
2019-05-25T02:07:46.771Z,16.1
2019-05-25T02:08:48.061Z,16
2019-05-25T02:09:49.331Z,16.2
2019-05-25T02:10:50.659Z,16.3
2019-05-25T02:11:51.989Z,16
2019-05-25T02:12:53.283Z,16.1
2019-05-25T02:13:54.579Z,16.2
2019-05-25T02:14:55.946Z,16.3
2019-05-25T02:15:57.379Z,16.2
2019-05-25T02:16:58.647Z,16.1
2019-05-25T02:18:00.035Z,16.2
2019-05-25T02:19:01.341Z,16.1
2019-05-25T02:20:02.618Z,16
2019-05-25T02:21:03.948Z,16.2
2019-05-25T02:22:05.255Z,16.4
2019-05-25T02:23:06.563Z,16.1
2019-05-25T02:24:07.878Z,16
2019-05-25T02:25:17.452Z,15.9
2019-05-25T02:26:19.731Z,15.9
2019-05-25T02:27:23.609Z,16
2019-05-25T02:28:25.806Z,15.7
2019-05-25T02:29:27.072Z,15.6
2019-05-25T02:30:28.346Z,15.6
2019-05-25T02:31:29.630Z,15.6
2019-05-25T02:32:30.909Z,15.5
2019-05-25T02:33:32.249Z,15.6
2019-05-25T02:34:33.566Z,15.9
2019-05-25T02:35:34.912Z,16.1
2019-05-25T02:36:36.344Z,16
2019-05-25T02:37:37.658Z,15.7
2019-05-25T02:38:38.997Z,15.6
2019-05-25T02:39:40.316Z,15.6
2019-05-25T02:40:41.611Z,15.6
2019-05-25T02:41:43.007Z,15.7
2019-05-25T02:42:44.291Z,15.6
2019-05-25T02:43:45.637Z,15.6
2019-05-25T02:44:46.917Z,15.6
2019-05-25T02:45:48.181Z,15.5
2019-05-25T02:46:49.505Z,15.4
2019-05-25T02:47:50.809Z,15.4
2019-05-25T02:48:52.209Z,15.4
2019-05-25T02:49:53.533Z,15.3
2019-05-25T02:50:54.813Z,15.4
2019-05-25T02:51:59.179Z,15.3
2019-05-25T02:53:00.535Z,15.4
2019-05-25T02:54:01.841Z,15.6
2019-05-25T02:55:03.297Z,15.6
2019-05-25T02:56:04.561Z,15.7
2019-05-25T02:57:05.892Z,15.9
2019-05-25T02:58:07.163Z,16
2019-05-25T02:59:08.473Z,15.9
2019-05-25T03:00:09.769Z,15.6
2019-05-25T03:01:11.095Z,15.3
2019-05-25T03:02:12.723Z,15.4
2019-05-25T03:03:14.275Z,15.2
2019-05-25T03:04:15.625Z,15.2
2019-05-25T03:05:18.190Z,15.1
2019-05-25T03:06:19.711Z,15.3
2019-05-25T03:07:20.993Z,15.4
2019-05-25T03:08:22.256Z,15.1
2019-05-25T03:09:24.590Z,15.2
2019-05-25T03:10:25.975Z,15
2019-05-25T03:11:27.247Z,15.2
2019-05-25T03:12:28.761Z,15.4
2019-05-25T03:13:31.607Z,15.3
2019-05-25T03:14:33.363Z,15.2
2019-05-25T03:15:34.667Z,15.1
2019-05-25T03:16:35.953Z,15.3
2019-05-25T03:17:37.271Z,15.3
2019-05-25T03:18:38.575Z,15.2
2019-05-25T03:19:40.075Z,15
2019-05-25T03:20:41.427Z,14.9
2019-05-25T03:21:42.874Z,14.8
2019-05-25T03:22:44.333Z,14.7
2019-05-25T03:23:45.597Z,14.6
2019-05-25T03:24:47.005Z,14.5
2019-05-25T03:25:49.806Z,14.6
2019-05-25T03:26:51.529Z,14.8
2019-05-25T03:27:52.803Z,15.3
2019-05-25T03:28:54.091Z,15.1
2019-05-25T03:29:55.425Z,15
2019-05-25T03:30:56.701Z,14.8
2019-05-25T03:31:57.987Z,15.2
2019-05-25T03:32:59.262Z,15
2019-05-25T03:34:00.539Z,14.9
2019-05-25T03:35:01.892Z,14.9
2019-05-25T03:36:04.242Z,14.9
2019-05-25T03:37:05.517Z,15
2019-05-25T03:38:06.907Z,14.9
2019-05-25T03:39:08.168Z,14.7
2019-05-25T03:40:09.528Z,14.9
2019-05-25T03:41:10.847Z,15
2019-05-25T03:42:12.208Z,14.8
2019-05-25T03:43:13.486Z,14.6
2019-05-25T03:44:14.748Z,14.8
2019-05-25T03:45:16.099Z,14.6
2019-05-25T03:46:17.368Z,14.7
2019-05-25T03:47:18.639Z,14.6
2019-05-25T03:48:19.903Z,14.7
2019-05-25T03:49:21.278Z,14.7
2019-05-25T03:50:22.603Z,14.6
2019-05-25T03:51:23.942Z,14.7
2019-05-25T03:52:25.229Z,15.1
2019-05-25T03:53:26.507Z,15.1
2019-05-25T03:54:27.812Z,15.2
2019-05-25T03:55:29.133Z,14.8
2019-05-25T03:56:30.424Z,14.7
2019-05-25T03:57:31.723Z,14.7
2019-05-25T03:58:32.991Z,14.8
2019-05-25T03:59:34.289Z,14.9
2019-05-25T04:00:35.665Z,14.8
2019-05-25T04:01:36.953Z,14.9
2019-05-25T04:02:38.313Z,15
2019-05-25T04:03:39.695Z,14.9
2019-05-25T04:04:40.998Z,15.1
2019-05-25T04:05:42.678Z,15.1
2019-05-25T04:06:44.003Z,15.3
2019-05-25T04:07:45.322Z,14.9
2019-05-25T04:08:49.218Z,14.6
2019-05-25T04:09:50.511Z,15
2019-05-25T04:10:51.847Z,14.9
2019-05-25T04:11:53.164Z,14.9
2019-05-25T04:12:54.453Z,14.9
2019-05-25T04:13:55.721Z,14.7
2019-05-25T04:14:57.046Z,14.9
2019-05-25T04:15:58.339Z,15
2019-05-25T04:16:59.665Z,15.3
2019-05-25T04:18:01.255Z,15.5
2019-05-25T04:19:02.524Z,15.5
2019-05-25T04:20:03.911Z,15.1
2019-05-25T04:21:05.270Z,15.3
2019-05-25T04:22:06.603Z,15.5
2019-05-25T04:23:07.880Z,15.6
2019-05-25T04:24:09.176Z,15.6
2019-05-25T04:25:10.434Z,15.8
2019-05-25T04:26:21.749Z,15.9
2019-05-25T04:27:23.931Z,16.2
2019-05-25T04:28:27.786Z,16.4
2019-05-25T04:29:34.077Z,16.4
2019-05-25T04:30:35.346Z,16.6
2019-05-25T04:31:36.694Z,16.7
2019-05-25T04:32:38.097Z,16.5
2019-05-25T04:33:39.412Z,16.5
2019-05-25T04:34:40.753Z,16.6
2019-05-25T04:35:42.056Z,16.9
2019-05-25T04:36:43.658Z,16.7
2019-05-25T04:37:44.969Z,16.1
2019-05-25T04:38:46.276Z,16.5
2019-05-25T04:39:47.612Z,16.8
2019-05-25T04:40:48.894Z,16.8
2019-05-25T04:41:50.254Z,17.1
2019-05-25T04:42:54.595Z,16.6
2019-05-25T04:43:55.961Z,16.2
2019-05-25T04:44:57.231Z,16.5
2019-05-25T04:45:58.672Z,16.9
2019-05-25T04:47:01.018Z,17.2
2019-05-25T04:48:02.294Z,17.5
2019-05-25T04:49:03.933Z,17.7
2019-05-25T04:50:05.208Z,17.9
2019-05-25T04:51:09.578Z,17.9
2019-05-25T04:52:10.963Z,17.4
2019-05-25T04:53:12.300Z,17.2
2019-05-25T04:54:13.574Z,17.4
2019-05-25T04:55:14.858Z,17.4
2019-05-25T04:56:16.166Z,17.3
2019-05-25T04:57:17.561Z,17.1
2019-05-25T04:58:18.848Z,17.2
2019-05-25T04:59:20.174Z,17.6
2019-05-25T05:00:21.490Z,17.8
2019-05-25T05:01:22.817Z,17.9
2019-05-25T05:02:24.152Z,17.9
2019-05-25T05:03:25.461Z,18.1
2019-05-25T05:04:26.736Z,18.2
2019-05-25T05:05:28.047Z,18.4
2019-05-25T05:06:29.368Z,18.4
2019-05-25T05:07:30.705Z,18.5
2019-05-25T05:08:35.441Z,18.6
2019-05-25T05:09:36.994Z,18.6
2019-05-25T05:10:38.289Z,18.5
2019-05-25T05:11:39.596Z,18.4
2019-05-25T05:12:40.902Z,18.4
2019-05-25T05:13:42.205Z,18
2019-05-25T05:14:43.496Z,17.7
2019-05-25T05:15:44.819Z,17.7
2019-05-25T05:16:46.111Z,17.7
2019-05-25T05:17:47.454Z,17.1
2019-05-25T05:18:48.737Z,16.6
2019-05-25T05:19:52.875Z,17
2019-05-25T05:20:54.150Z,17.4
2019-05-25T05:21:55.471Z,16.9
2019-05-25T05:22:57.530Z,16.9
2019-05-25T05:24:00.275Z,17.2
2019-05-25T05:25:01.689Z,17.2
2019-05-25T05:26:03.168Z,16.6
2019-05-25T05:27:04.462Z,17.2
2019-05-25T05:28:05.808Z,17.8
2019-05-25T05:29:07.124Z,18.1
2019-05-25T05:30:08.426Z,18.2
2019-05-25T05:31:22.604Z,18.2
2019-05-25T05:32:27.940Z,18.2
2019-05-25T05:33:29.473Z,18.4
2019-05-25T05:34:30.837Z,18.2
2019-05-25T05:35:32.437Z,17.9
2019-05-25T05:36:33.734Z,17.7
2019-05-25T05:37:35.047Z,17.8
2019-05-25T05:38:36.428Z,17.8
2019-05-25T05:39:37.738Z,17.8
2019-05-25T05:40:39.127Z,18.2
2019-05-25T05:41:40.455Z,18.2
2019-05-25T05:42:41.776Z,18.2
2019-05-25T05:43:43.121Z,17.8
2019-05-25T05:44:44.469Z,17.9
2019-05-25T05:45:45.777Z,17.9
2019-05-25T05:46:47.097Z,18.1
2019-05-25T05:47:48.379Z,17.3
2019-05-25T05:48:49.718Z,17.3
2019-05-25T05:49:51.027Z,17.7
2019-05-25T05:50:52.313Z,18.2
2019-05-25T05:51:56.327Z,18.1
2019-05-25T05:52:57.626Z,17.5
2019-05-25T05:53:58.966Z,17.4
2019-05-25T05:55:00.299Z,17.6
2019-05-25T05:56:03.785Z,18
2019-05-25T05:57:12.072Z,18.4
2019-05-25T05:58:14.065Z,18.5
2019-05-25T05:59:15.434Z,18.6
2019-05-25T06:00:16.748Z,18.8
2019-05-25T06:01:20.546Z,18.6
2019-05-25T06:02:21.838Z,18.7
2019-05-25T06:03:23.239Z,18.7
2019-05-25T06:04:27.799Z,18.9
2019-05-25T06:05:32.106Z,18.9
2019-05-25T06:06:36.459Z,19
2019-05-25T06:07:39.273Z,19
2019-05-25T06:08:40.676Z,18.9
2019-05-25T06:09:42.007Z,18.6
2019-05-25T06:10:43.309Z,18.7
2019-05-25T06:11:44.616Z,18.8
2019-05-25T06:12:47.983Z,18.8
2019-05-25T06:13:49.287Z,18.8
2019-05-25T06:14:50.647Z,18.8
2019-05-25T06:15:55.845Z,18.8
2019-05-25T06:16:57.384Z,18.7
2019-05-25T06:17:58.683Z,18.6
2019-05-25T06:18:59.976Z,18.3
2019-05-25T06:20:06.783Z,18.5
2019-05-25T06:21:10.931Z,18.4
2019-05-25T06:22:12.250Z,18
2019-05-25T06:23:13.510Z,18.2
2019-05-25T06:24:14.837Z,18.2
2019-05-25T06:25:16.215Z,18.3
2019-05-25T06:26:17.547Z,18.5
2019-05-25T06:27:26.745Z,17.8
2019-05-25T06:28:29.302Z,17.7
2019-05-25T06:29:30.583Z,17.3
2019-05-25T06:30:31.959Z,17.8
2019-05-25T06:31:33.307Z,18.1
2019-05-25T06:32:35.309Z,18
2019-05-25T06:33:36.615Z,17.5
2019-05-25T06:34:38.315Z,17.9
2019-05-25T06:35:39.627Z,18
2019-05-25T06:36:43.491Z,17.9
2019-05-25T06:37:45.352Z,17.6
2019-05-25T06:38:46.663Z,18
2019-05-25T06:39:47.941Z,18.1
2019-05-25T06:40:49.263Z,17.8
2019-05-25T06:41:50.554Z,17.8
2019-05-25T06:42:52.029Z,18.1
2019-05-25T06:43:53.377Z,17.7
2019-05-25T06:44:54.653Z,17.5
2019-05-25T06:45:55.961Z,17
2019-05-25T06:46:57.277Z,16.9
2019-05-25T06:47:58.635Z,17.2
2019-05-25T06:48:59.953Z,17.5
2019-05-25T06:50:01.283Z,17.5
2019-05-25T06:51:05.488Z,17.8
2019-05-25T06:52:06.781Z,17.8
2019-05-25T06:53:08.109Z,18.1
2019-05-25T06:54:09.387Z,18.3
2019-05-25T06:55:10.749Z,18.2
2019-05-25T06:56:12.111Z,18.2
2019-05-25T06:57:13.415Z,18.3
2019-05-25T06:58:14.749Z,18.5
2019-05-25T06:59:16.022Z,18.5
2019-05-25T07:00:17.345Z,18.5
2019-05-25T07:01:18.673Z,18.6
2019-05-25T07:02:22.531Z,18.7
2019-05-25T07:03:24.205Z,18.9
2019-05-25T07:04:25.497Z,19
2019-05-25T07:05:27.099Z,19.2
2019-05-25T07:06:29.401Z,19.2
2019-05-25T07:07:32.302Z,19.3
2019-05-25T07:08:37.490Z,19.4
2019-05-25T07:09:42.375Z,19.4
2019-05-25T07:10:45.371Z,19.4
2019-05-25T07:11:48.310Z,19.5
2019-05-25T07:12:50.870Z,19.5
2019-05-25T07:13:54.452Z,19.6
2019-05-25T07:15:00.031Z,19.6
2019-05-25T07:16:08.116Z,19.8
2019-05-25T07:17:16.612Z,19.8
2019-05-25T07:18:19.348Z,19.8
2019-05-25T07:19:27.077Z,19.9
2019-05-25T07:20:31.569Z,19.9
2019-05-25T07:21:33.699Z,20
2019-05-25T07:22:38.629Z,20
2019-05-25T07:23:41.193Z,20
2019-05-25T07:24:42.791Z,20
2019-05-25T07:25:44.620Z,20
2019-05-25T07:26:46.345Z,20
2019-05-25T07:27:58.547Z,20
2019-05-25T07:29:02.785Z,20.3
2019-05-25T07:30:09.783Z,20.2
2019-05-25T07:31:12.224Z,20.2
2019-05-25T07:32:19.281Z,20.3
2019-05-25T07:33:22.168Z,20.3
2019-05-25T07:34:25.037Z,20.3
2019-05-25T07:35:26.716Z,20.3
2019-05-25T07:36:28.020Z,20.3
2019-05-25T07:37:29.382Z,20.3
2019-05-25T07:38:30.738Z,20.3
2019-05-25T07:39:32.042Z,20.3
2019-05-25T07:40:36.410Z,20.4
2019-05-25T07:41:37.723Z,20.4
2019-05-25T07:42:39.049Z,20.5
2019-05-25T07:43:41.904Z,20.6
2019-05-25T07:44:43.234Z,20.6
2019-05-25T07:45:44.569Z,20.6
2019-05-25T07:46:46.008Z,20.6
2019-05-25T07:47:47.334Z,20.6
2019-05-25T07:48:50.417Z,20.6
2019-05-25T07:49:51.836Z,20.6
2019-05-25T07:50:54.904Z,20.6
2019-05-25T07:51:56.268Z,20.6
2019-05-25T07:53:03.367Z,20.7
2019-05-25T07:54:07.246Z,20.7
2019-05-25T07:55:08.592Z,20.7
2019-05-25T07:56:09.910Z,20.7
2019-05-25T07:57:11.196Z,20.8
2019-05-25T07:58:17.102Z,20.8
2019-05-25T07:59:19.568Z,20.8
2019-05-25T08:00:20.929Z,20.8
2019-05-25T08:01:22.234Z,20.8
2019-05-25T08:02:23.546Z,20.8
2019-05-25T08:03:24.908Z,20.9
2019-05-25T08:04:26.360Z,20.9
2019-05-25T08:05:27.675Z,20.9
2019-05-25T08:06:28.988Z,20.9
2019-05-25T08:07:33.260Z,20.9
2019-05-25T08:08:36.283Z,20.9
2019-05-25T08:09:39.152Z,20.9
2019-05-25T08:10:40.529Z,21
2019-05-25T08:11:41.834Z,21
2019-05-25T08:12:43.701Z,21
2019-05-25T08:13:47.992Z,21
2019-05-25T08:14:49.363Z,21
2019-05-25T08:15:50.699Z,21
2019-05-25T08:16:57.295Z,21
2019-05-25T08:17:58.626Z,21
2019-05-25T08:19:08.288Z,21.1
2019-05-25T08:20:09.648Z,21.1
2019-05-25T08:21:10.954Z,21.1
2019-05-25T08:22:12.298Z,21.1
2019-05-25T08:23:13.620Z,21.1
2019-05-25T08:24:17.120Z,21.1
2019-05-25T08:25:18.472Z,21.1
2019-05-25T08:26:19.796Z,21.1
2019-05-25T08:27:21.105Z,21.1
2019-05-25T08:28:32.477Z,21.2
2019-05-25T08:29:34.554Z,21.2
2019-05-25T08:30:36.081Z,21.2
2019-05-25T08:31:37.804Z,21.2
2019-05-25T08:32:39.511Z,21.2
2019-05-25T08:33:41.060Z,21.2
2019-05-25T08:34:42.364Z,21.2
2019-05-25T08:35:46.421Z,21.2
2019-05-25T08:36:48.292Z,21.2
2019-05-25T08:37:49.627Z,21.2
2019-05-25T08:38:54.862Z,21.3
2019-05-25T08:39:56.410Z,21.3
2019-05-25T08:40:59.238Z,21.3
2019-05-25T08:42:03.301Z,21.3
2019-05-25T08:43:04.624Z,21.3
2019-05-25T08:44:08.216Z,21.3
2019-05-25T08:45:11.844Z,21.3
2019-05-25T08:46:13.346Z,21.3
2019-05-25T08:47:14.930Z,21.3
2019-05-25T08:48:16.332Z,21.3
2019-05-25T08:49:17.654Z,21.4
2019-05-25T08:50:19.320Z,21.4
2019-05-25T08:51:20.676Z,21.4
2019-05-25T08:52:22.363Z,21.4
2019-05-25T08:53:39.879Z,21.4
2019-05-25T08:54:45.373Z,21.4
2019-05-25T08:55:47.008Z,21.4
2019-05-25T08:56:51.827Z,21.4
2019-05-25T08:57:53.143Z,21.4
2019-05-25T08:58:55.748Z,21.4
2019-05-25T08:59:58.467Z,21.4
2019-05-25T09:01:02.893Z,21.4
2019-05-25T09:02:04.565Z,21.4
2019-05-25T09:03:06.096Z,21.5
2019-05-25T09:04:07.412Z,21.5
2019-05-25T09:05:10.997Z,21.5
2019-05-25T09:06:12.278Z,21.5
2019-05-25T09:07:13.650Z,21.5
2019-05-25T09:08:14.972Z,21.5
2019-05-25T09:09:18.528Z,21.6
2019-05-25T09:10:19.862Z,21.6
2019-05-25T09:11:21.192Z,21.6
2019-05-25T09:12:22.842Z,21.6
2019-05-25T09:13:31.332Z,21.6
2019-05-25T09:14:35.743Z,21.6
2019-05-25T09:15:37.382Z,21.6
2019-05-25T09:16:38.754Z,21.6
2019-05-25T09:17:40.168Z,21.6
2019-05-25T09:18:41.610Z,21.6
2019-05-25T09:19:42.951Z,21.6
2019-05-25T09:20:50.438Z,21.6
2019-05-25T09:22:01.785Z,21.7
2019-05-25T09:23:05.021Z,21.7
2019-05-25T09:24:06.328Z,21.7
2019-05-25T09:25:08.020Z,21.7
2019-05-25T09:26:09.333Z,21.7
2019-05-25T09:27:15.525Z,21.7
2019-05-25T09:28:17.007Z,21.7
2019-05-25T09:29:18.310Z,21.7
2019-05-25T09:30:20.768Z,21.7
2019-05-25T09:31:24.911Z,21.7
2019-05-25T09:32:26.364Z,21.7
2019-05-25T09:33:28.059Z,21.7
2019-05-25T09:34:29.371Z,21.7
2019-05-25T09:35:30.683Z,21.7
2019-05-25T09:36:31.984Z,21.7
2019-05-25T09:37:33.374Z,21.8
2019-05-25T09:38:37.170Z,21.8
2019-05-25T09:39:39.171Z,21.8
2019-05-25T09:40:40.526Z,21.8
2019-05-25T09:41:41.916Z,21.8
2019-05-25T09:42:43.765Z,21.8
2019-05-25T09:43:45.357Z,21.8
2019-05-25T09:44:46.648Z,21.8
2019-05-25T09:45:47.967Z,21.8
2019-05-25T09:46:49.312Z,21.8
2019-05-25T09:47:53.602Z,21.8
2019-05-25T09:48:54.934Z,21.9
2019-05-25T09:49:56.435Z,21.9
2019-05-25T09:50:58.816Z,21.9
2019-05-25T09:52:02.690Z,21.9
2019-05-25T09:53:04.232Z,21.9
2019-05-25T09:54:06.064Z,21.9
2019-05-25T09:55:10.223Z,21.9
2019-05-25T09:56:14.675Z,21.9
2019-05-25T09:57:16.125Z,22
2019-05-25T09:58:18.687Z,22
2019-05-25T09:59:21.951Z,22
2019-05-25T10:00:25.244Z,22
2019-05-25T10:01:27.029Z,22
2019-05-25T10:02:28.374Z,22
2019-05-25T10:03:29.829Z,22
2019-05-25T10:04:34.192Z,22
2019-05-25T10:05:40.086Z,22
2019-05-25T10:06:41.389Z,22
2019-05-25T10:07:42.713Z,22
2019-05-25T10:08:44.291Z,22.1
2019-05-25T10:09:48.663Z,22.1
2019-05-25T10:10:50.357Z,22.1
2019-05-25T10:11:57.319Z,22.1
2019-05-25T10:12:58.637Z,22.1
2019-05-25T10:14:00.009Z,22.1
2019-05-25T10:15:01.438Z,22.1
2019-05-25T10:16:03.058Z,22.1
2019-05-25T10:17:04.401Z,22.2
2019-05-25T10:18:09.903Z,22.2
2019-05-25T10:19:11.237Z,22.2
2019-05-25T10:20:12.828Z,22.2
2019-05-25T10:21:16.327Z,22.2
2019-05-25T10:22:17.765Z,22.2
2019-05-25T10:23:19.154Z,22.2
2019-05-25T10:24:20.441Z,22.2
2019-05-25T10:25:21.794Z,22.2
2019-05-25T10:26:24.549Z,22.2
2019-05-25T10:27:27.958Z,22.2
2019-05-25T10:28:31.768Z,22.2
2019-05-25T10:29:36.891Z,22.3
2019-05-25T10:30:46.451Z,22.3
2019-05-25T10:31:47.878Z,22.3
2019-05-25T10:32:55.303Z,22.3
2019-05-25T10:33:56.645Z,22.3
2019-05-25T10:34:58.223Z,22.3
2019-05-25T10:35:59.625Z,22.3
2019-05-25T10:37:00.981Z,22.4
2019-05-25T10:38:04.766Z,22.4
2019-05-25T10:39:11.364Z,22.4
2019-05-25T10:40:14.921Z,22.4
2019-05-25T10:41:16.296Z,22.4
2019-05-25T10:42:17.601Z,22.4
2019-05-25T10:43:21.260Z,22.4
2019-05-25T10:44:22.916Z,22.4
2019-05-25T10:45:24.377Z,22.4
2019-05-25T10:46:26.200Z,22.5
2019-05-25T10:47:28.407Z,22.4
2019-05-25T10:48:29.771Z,22.5
2019-05-25T10:49:36.617Z,22.5
2019-05-25T10:50:38.195Z,22.5
2019-05-25T10:51:44.159Z,22.5
2019-05-25T10:52:45.555Z,22.5
2019-05-25T10:53:47.025Z,22.5
2019-05-25T10:54:48.364Z,22.5
2019-05-25T10:55:49.945Z,22.5
2019-05-25T10:56:51.580Z,22.6
2019-05-25T10:57:53.195Z,22.5
2019-05-25T10:58:56.692Z,22.6
2019-05-25T10:59:58.349Z,22.6
2019-05-25T11:00:59.694Z,22.6
2019-05-25T11:02:01.356Z,22.6
2019-05-25T11:03:02.705Z,22.6
2019-05-25T11:04:05.330Z,22.6
2019-05-25T11:05:07.163Z,22.6
2019-05-25T11:06:13.023Z,22.6
2019-05-25T11:07:14.387Z,22.7
2019-05-25T11:08:15.821Z,22.7
2019-05-25T11:09:17.466Z,22.7
2019-05-25T11:10:21.327Z,22.7
2019-05-25T11:11:24.028Z,22.7
2019-05-25T11:12:26.157Z,22.7
2019-05-25T11:13:27.749Z,22.7
2019-05-25T11:14:29.328Z,22.5
2019-05-25T11:15:31.208Z,22.8
2019-05-25T11:16:32.509Z,22.8
2019-05-25T11:17:34.044Z,22.8
2019-05-25T11:18:36.351Z,22.8
2019-05-25T11:19:37.710Z,22.8
2019-05-25T11:20:43.962Z,22.8
2019-05-25T11:21:48.164Z,22.8
2019-05-25T11:22:49.580Z,22.8
2019-05-25T11:23:52.045Z,22.8
2019-05-25T11:24:53.400Z,22.8
2019-05-25T11:25:54.734Z,22.8
2019-05-25T11:26:59.494Z,22.9
2019-05-25T11:28:01.375Z,22.9
2019-05-25T11:29:03.024Z,22.9
2019-05-25T11:30:09.272Z,22.9
2019-05-25T11:31:11.534Z,22.9
2019-05-25T11:32:15.955Z,22.9
2019-05-25T11:33:17.347Z,22.9
2019-05-25T11:34:21.063Z,22.9
2019-05-25T11:36:43.164Z,22.9
2019-05-25T11:39:07.091Z,23
2019-05-25T11:40:10.713Z,23
2019-05-25T11:41:15.800Z,23
2019-05-25T11:42:24.745Z,23
2019-05-25T11:43:36.145Z,23
2019-05-25T11:44:37.813Z,23
2019-05-25T11:45:39.334Z,23
2019-05-25T11:46:40.801Z,23
2019-05-25T11:47:42.309Z,23
2019-05-25T11:48:43.751Z,23
2019-05-25T11:49:45.261Z,23
2019-05-25T11:50:50.871Z,23
2019-05-25T11:51:52.340Z,23
2019-05-25T11:52:56.436Z,23
2019-05-25T11:53:58.187Z,23
2019-05-25T11:55:01.022Z,23
2019-05-25T11:56:02.630Z,23
2019-05-25T11:57:06.655Z,23
2019-05-25T11:58:08.294Z,23
2019-05-25T11:59:09.687Z,23
2019-05-25T12:00:23.551Z,23.1
2019-05-25T12:01:28.059Z,23
2019-05-25T12:02:31.969Z,23.1
2019-05-25T12:03:36.210Z,23.1
2019-05-25T12:04:37.962Z,23.1
2019-05-25T12:05:39.666Z,23.1
2019-05-25T12:06:42.598Z,23.1
2019-05-25T12:07:46.194Z,23.1
2019-05-25T12:08:52.757Z,23.1
2019-05-25T12:09:54.440Z,23.1
2019-05-25T12:10:55.986Z,23.1
2019-05-25T12:11:57.321Z,23.1
2019-05-25T12:12:59.822Z,23.2
2019-05-25T12:14:03.990Z,23.2
2019-05-25T12:15:11.767Z,23.2
2019-05-25T12:16:13.309Z,23.2
2019-05-25T12:17:14.680Z,23.2
2019-05-25T12:18:16.139Z,23.2
2019-05-25T12:19:17.615Z,23.2
2019-05-25T12:20:19.486Z,23.3
2019-05-25T12:21:22.137Z,23.3
2019-05-25T12:22:27.561Z,23.3
2019-05-25T12:23:29.582Z,23.3
2019-05-25T12:24:31.058Z,23.3
2019-05-25T12:25:32.485Z,23.3
2019-05-25T12:26:36.969Z,23.3
2019-05-25T12:27:38.514Z,23.3
2019-05-25T12:28:43.010Z,23.3
2019-05-25T12:29:44.609Z,23.3
2019-05-25T12:32:03.572Z,23.3
2019-05-25T12:33:05.560Z,23.2
2019-05-25T12:34:06.947Z,23.3
2019-05-25T12:35:08.410Z,23.3
2019-05-25T12:36:10.268Z,23.3
2019-05-25T12:37:11.687Z,23.3
2019-05-25T12:38:13.998Z,23.3
2019-05-25T12:39:15.473Z,23.3
2019-05-25T12:40:17.023Z,23.3
2019-05-25T12:41:18.580Z,23.3
2019-05-25T12:42:22.498Z,23.3
2019-05-25T12:43:27.515Z,23.3
2019-05-25T12:44:28.961Z,23.3
2019-05-25T12:45:30.275Z,23.3
2019-05-25T12:46:34.726Z,23.3
2019-05-25T12:47:36.163Z,23.3
2019-05-25T12:48:37.653Z,23.4
2019-05-25T12:49:49.842Z,23.4
2019-05-25T12:50:56.485Z,23.4
2019-05-25T12:53:07.485Z,23.4
2019-05-25T12:54:11.319Z,23.4
2019-05-25T12:55:34.907Z,23.4
2019-05-25T12:56:36.279Z,23.4
2019-05-25T12:57:37.605Z,23.4
2019-05-25T12:58:40.187Z,23.4
2019-05-25T12:59:50.988Z,23.5
2019-05-25T13:00:55.882Z,23.5
2019-05-25T13:02:03.106Z,23.5
2019-05-25T13:03:04.412Z,23.5
2019-05-25T13:04:05.850Z,23.5
2019-05-25T13:05:08.438Z,23.5
2019-05-25T13:06:10.064Z,23.5
2019-05-25T13:07:14.080Z,23.5
2019-05-25T13:08:16.400Z,23.5
2019-05-25T13:09:20.648Z,23.5
2019-05-25T13:10:25.312Z,23.5
2019-05-25T13:11:26.674Z,23.5
2019-05-25T13:12:27.997Z,23.6
2019-05-25T13:13:29.468Z,23.6
2019-05-25T13:14:30.818Z,23.5
2019-05-25T13:15:32.177Z,23.6
2019-05-25T13:16:34.044Z,23.6
2019-05-25T13:17:35.460Z,23.6
2019-05-25T13:18:36.770Z,23.6
2019-05-25T13:19:38.320Z,23.6
2019-05-25T13:20:39.686Z,23.6
2019-05-25T13:21:41.220Z,23.6
2019-05-25T13:22:42.560Z,23.6
2019-05-25T13:23:54.844Z,23.6
2019-05-25T13:24:57.283Z,23.6
2019-05-25T13:26:01.036Z,23.6
2019-05-25T13:27:02.602Z,23.6
2019-05-25T13:28:04.299Z,23.7
2019-05-25T13:29:08.384Z,23.7
2019-05-25T13:30:09.748Z,23.7
2019-05-25T13:31:11.933Z,23.7
2019-05-25T13:32:18.191Z,23.7
2019-05-25T13:33:21.680Z,23.7
2019-05-25T13:34:23.418Z,23.6
2019-05-25T13:35:24.978Z,23.7
2019-05-25T13:36:26.316Z,23.4
2019-05-25T13:37:30.369Z,23.7
2019-05-25T13:38:31.714Z,23.7
2019-05-25T13:39:33.092Z,23.7
2019-05-25T13:40:38.624Z,23.7
2019-05-25T13:41:40.088Z,23.7
2019-05-25T13:42:42.380Z,23.7
2019-05-25T13:43:46.112Z,23.7
2019-05-25T13:44:55.098Z,23.7
2019-05-25T13:45:56.458Z,23.7
2019-05-25T13:46:57.842Z,23.7
2019-05-25T13:47:59.224Z,23.7
2019-05-25T13:49:00.576Z,23.7
2019-05-25T13:50:01.999Z,23.8
2019-05-25T13:51:03.388Z,23.8
2019-05-25T13:52:04.733Z,23.8
2019-05-25T13:53:06.088Z,23.8
2019-05-25T13:54:07.407Z,23.8
2019-05-25T13:55:08.913Z,23.8
2019-05-25T13:56:10.250Z,23.8
2019-05-25T13:57:11.665Z,23.8
2019-05-25T13:58:19.796Z,23.8
2019-05-25T13:59:21.654Z,23.8
2019-05-25T14:00:24.847Z,23.8